zondag 31 mei 2020 | Home | Bestenlijsten | Bestenlijsten NL | Calculators | Nieuws | Records | Uitslagen | VZA Ranglijsten | Weer |
 
Recent nieuws meer nieuws
28-05: Is snelheid een relatief begrip? Maar dan op herhaling
19-05: Snelheid een relatief begrip?
06-05: Mag huidig niveau hardlopen zomaar vergeleken worden met dat van de jaren 70?
28-04: Ook na 1 juni Run your own race
24-04: Zeeuws record 15 km van John Vermeule meest kansrijk om ooit te worden verbroken
21-04: Kunnen we na 1 juni stoppen met Run your own race?
 
Zoek tenminste met 3 tekens van wedstrijd, datum, plaats of atleet

Scheldesportloop

Terneuzen, zaterdag 7 februari 2015 - Organisatie: Scheldesport
12.8 km
PltsNaam
Tijdkm/umin/kmm/secgap
1  Sander PostTerneuzen45.24minMse   16.916  3:334.70-
2  Jody SchoorensAalst45.32minMse   16.867  3:334.69+0:08
3  Erik GoossenTerneuzen46.29minM40   16.522  3:384.59+1:05
4  Frederik De BackerWaregem47.22minMse   16.214  3:424.50+1:58
5  Davy VanderroostNinove48.02minMse   15.989  3:454.44+2:38
6  Alexander VanwalleghemVeldegem48.49minMse   15.732  3:494.37+3:25
7  Dennis FlorussenTerneuzen49.40minM40   15.463  3:534.30+4:16
8  Sam Van ElsuweEvergem52.54minMse   14.518  4:084.03+7:30
9  Nico RosWaarschoot53.31minMse   14.351  4:113.99+8:07
10  Gert-Jan KolijnTerneuzen53.43minMse   14.297  4:123.97+8:19
11  Endy SlockAxel53.49minM40   14.271  4:123.96+8:25
12  Bas JasperseTerneuzen54.20minMse   14.135  4:153.93+8:56
13  Herman KuijerTerneuzen54.31minM50   14.087  4:163.91+9:07
14  Stefan van DammeTerneuzen55.17minMse   13.892  4:193.86+9:53
15  Alwin BollemanAxel55.18minMse   13.888  4:193.86+9:54
16  Douwe WortmanAxel55.45minMse   13.776  4:213.83+10:21
17  Sjakkie van den BroekeHoek55.52minMse   13.747  4:223.82+10:28
18  Berry KnibbelerWestdorpe56.01minM50   13.710  4:233.81+10:37
19  Ronny GeleynVerrebroek56.03minMse   13.702  4:233.81+10:39
20  Rudy MichielsOosterzele56.18minMse   13.641  4:243.79+10:54
21  Theo RoelsKloosterzande56.38minM55   13.561  4:253.77+11:14
22  Erwin ScheeleTerneuzen56.45minMse   13.533  4:263.76+11:21
23  Jack MechielsenTerneuzen56.48minMse   13.521  4:263.76+11:24
24  Evert KuijkTerneuzen56.59minM45   13.478  4:273.74+11:35
25  Hedwig Van BeverenMoerbeke57.18minMse   13.403  4:293.72+11:54
26  Erik BollemanAxel57.21minMse   13.391  4:293.72+11:57
27  Geerd De RyckStekene57.30minMse   13.357  4:303.71+12:06
28  Ebe BlaauwTerneuzen57.52minM60   13.272  4:313.69+12:28
29  Jos van GrembergheKoewacht58.08minMse   13.211  4:333.67+12:44
30  Michel FieretTerneuzen58.35minMse   13.110  4:353.64+13:11
31  Marc WelvaertOosteeklo59.26minMse   12.922  4:393.59+14:02
32  Wim StrobbeKloosterzande1.00.00minMse   12.800  4:413.56+14:36
33  Jacques ZamanTerneuzen1.00.29minM50   12.698  4:443.53+15:05
34  Guy Van SeverenLovendegem1.00.56minMse   12.604  4:463.50+15:32
35  Fiona ReijersTerneuzen1.01.18minVse   12.529  4:473.48+15:54
36  Frans VerwilligenHulst1.02.58minMse   12.197  4:553.39+17:34
37  Nadia BleyenbergNieuw-Namen1.02.59minVse   12.194  4:553.39+17:35
38  Marianne KnijffPhilippine1.03.29minV50   12.098  4:583.36+18:05
39  Wim LockefeirNieuw-Namen1.03.43minMse   12.053  4:593.35+18:19
40  Filip GoemanWaarschoot1.05.41minMse   11.692  5:083.25+20:17
41  Marc de BaetsHeusden1.05.52minMse   11.660  5:093.24+20:28
42  Kristof Vande WieleOudenaarde1.06.27minMse   11.558  5:113.21+21:03
43  Erno DuponKieldrecht1.07.39minMse   11.353  5:173.15+22:15
44  Romain BolssensKieldrecht1.08.44minMse   11.174  5:223.10+23:20
45  Ko de KoeyerZaamslag1.09.11minMse   11.101  5:243.08+23:47
46  Marion GoossenTerneuzen1.09.12minV40   11.098  5:243.08+23:48
47  Kimberley Van WaesbergheSint-Pauwels1.10.07minVse   10.953  5:293.04+24:43
48  William VerdonckBeveren-Waas1.10.09minMse   10.948  5:293.04+24:45
49  Micaela BooneHulst1.10.39minVse   10.870  5:313.02+25:15
50  Stefaan de WertClinge1.10.39minMse   10.870  5:313.02+25:15
51  Els ZweistraTerneuzen1.11.26minVse   10.751  5:352.99+26:02
52  Carlos De WillsmackerAalter1.13.12minMse   10.492  5:432.91+27:48
53  Rudy Vande VeldeWachtebeke1.13.14minMse   10.487  5:432.91+27:50
54  Marga KuijpersTerneuzen1.18.27minVse   9.790  6:082.72+33:03
55  Danielle van der KooiTerneuzen1.18.27minVse   9.790  6:082.72+33:03
56  Amber WortmanAxel1.18.38minVse   9.767  6:092.71+33:14
57  Mirjam AlbicherPhilippine1.22.21minVse   9.326  6:262.59+36:57
Mannen: 46 (80.7%) => M40=3 - M45=1 - M50=3 - M55=1 - M60=1 - Mse=37
Vrouwen: 11 (19.3%) => V40=1 - V50=1 - Vse=9

Overzicht Top3, winnares en aantal deelnemers van aanwezige edities

JaarWinnaarTijd2eTijd 3eTijdWinnaresTijd#

12.8 km

2019Mark Verhage45:42Chris de Smit47:59Sander d'Hont48:31Eliny Diakakis55:5447
2017Sander Post44:06Mark Verhage47:04Jan Riemens47:25Carolien van de Kreeke50:3147
2016Jente Samson44:54Stijn Vermeersch46:25Davy Vanderroost46:48Cathy Poppe54:4741
2015Sander Post45:24Jody Schoorens45:32Erik Goossen46:29Fiona Reijers1:01:1857
2014Henk De Brauwer47:26Erwin van den Broeke47:59Sander Post48:28Katrien Lievens54:2963
6.7 km
PltsNaam
Tijdkm/umin/kmm/secgap
1  Francesco DegrooteGent22.45minMse   17.670  3:244.91-
2  Jente SamsonBerlare22.54minMse   17.555  3:254.88+0:09
3  Martijn KoxWestdorpe24.28minMse   16.431  3:394.56+1:43
4  Ronny WagenaerMelsele24.38minMse   16.319  3:414.53+1:53
5  Cedric GerylStekene26.17minMse   15.295  3:554.25+3:32
6  Alwin de ZeeuwTerneuzen26.38minM40   15.094  3:594.19+3:53
7  Paul HaertjensBoekhoute27.48minMse   14.460  4:094.02+5:03
8  Fien van BrusselHamme28.24minVse   14.155  4:143.93+5:39
9  Gilles FaasTerneuzen28.41minMse   14.015  4:173.89+5:56
10  Patrick RoosenboomZele28.43minMse   13.999  4:173.89+5:58
11  Irma KarahotkaZottegem29.09minVse   13.791  4:213.83+6:24
12  Bennie BouterseTerneuzen29.34minMse   13.596  4:253.78+6:49
13  Natasja BooijWalsoorden31.03minVse   12.947  4:383.60+8:18
14  Ko de BruijnKloosterzande31.10minMse   12.898  4:393.58+8:25
15  Corina van de WegePhilippine31.21minVse   12.823  4:413.56+8:36
16  Jaap den DoelderTerneuzen31.56minMse   12.589  4:463.50+9:11
17  Philippe Van GeertruyEkeren32.10minMse   12.497  4:483.47+9:25
18  Corine de JongeTerneuzen32.39minVse   12.312  4:523.42+9:54
19  Daan DielemanZaamslag33.55minMse   11.853  5:043.29+11:10
20  Monique VervaetWalsoorden34.18minVse   11.720  5:073.26+11:33
21  Margo HermansOssenisse34.50minVse   11.541  5:123.21+12:05
22  Rony PedeWaarschoot34.51minMse   11.535  5:123.20+12:06
23  Irene GoethalsOostakker34.58minMse   11.497  5:133.19+12:13
24  Hubert RoelsKloosterzande35.14minMse   11.410  5:163.17+12:29
25  Aureel LippensWaarschot35.38minMse   11.282  5:193.13+12:53
26  Yves RooversWommelgem35.57minMse   11.182  5:223.11+13:12
27  Cybelle BouchautHulst35.59minVse   11.172  5:223.10+13:14
28  Marian van VorenTerneuzen36.05minVse   11.141  5:233.09+13:20
29  Pierre TondeleirLaarne36.23minMse   11.049  5:263.07+13:38
30  Jac den HamerBiervliet36.34minMse   10.994  5:273.05+13:49
31  Bram DeesPhilippine36.55minMse   10.889  5:313.02+14:10
32  Freddy VerstichelStekene38.01minMse   10.574  5:402.94+15:16
33  Rudy Van WaesbergheSint-Pauwels38.41minMse   10.392  5:462.89+15:56
34  Willem Jan de KoeijerAxel39.01minMse   10.303  5:492.86+16:16
35  Joke CornelissenTerneuzen39.08minVse   10.273  5:502.85+16:23
36  Annemarie MurreTerneuzen39.42minVse   10.126  5:562.81+16:57
37  AndrĂ© PietersTerneuzen40.08minMse   10.017  5:592.78+17:23
38  Sheila de WaalTerneuzen40.41minVse   9.881  6:042.74+17:56
39  Marc de KunderTerneuzen41.17minMse   9.738  6:102.70+18:32
40  Andre Van GoethemSint-Gillis-Waas42.58minMse   9.356  6:252.60+20:13
41  Dick VerhelstZaamslag46.28minMse   8.651  6:562.40+23:43
42  Greta de VylderSint-Gillis-Waas46.47minVse   8.593  6:592.39+24:02
43  Marie Jeanne WeemaesSint-Gillis-Waas46.48minVse   8.590  6:592.39+24:03
Mannen: 29 (67.44%) => M40=1 - Mse=28
Vrouwen: 14 (32.56%) => Vse=14

Snelheid en tempo zijn berekend op de vermelde afstand. Bij een onjuiste afstand wijken deze uiteraard af!

Fouten melden via info@atletiekzeeland.nl Categorie fout? Mail dan geboortedatum. (geldt alleen voor Zeeuwen)

De server had 0.216 seconden nodig om deze lijst met 100 prestaties samen te stellen.

Terug naar boven


 
Atletiek Zeeland © 2020